createdAt,value
2022-11-24T00:01:07.319Z,98.25
2022-11-24T00:03:34.089Z,97.91
2022-11-24T00:06:09.460Z,98.00
2022-11-24T00:08:37.610Z,98.46
2022-11-24T00:11:10.065Z,98.50
2022-11-24T00:13:40.679Z,98.19
2022-11-24T00:16:13.009Z,98.80
2022-11-24T00:18:41.634Z,98.87
2022-11-24T00:21:08.127Z,98.89
2022-11-24T00:23:35.339Z,98.83
2022-11-24T00:26:10.581Z,98.80
2022-11-24T00:28:38.470Z,98.74
2022-11-24T00:31:17.416Z,98.78
2022-11-24T00:33:45.847Z,98.08
2022-11-24T00:36:12.309Z,98.22
2022-11-24T00:38:38.702Z,98.21
2022-11-24T00:41:05.763Z,98.63
2022-11-24T00:43:32.584Z,98.44
2022-11-24T00:45:59.023Z,98.13
2022-11-24T00:48:26.045Z,97.85
2022-11-24T00:51:04.063Z,97.68
2022-11-24T00:53:31.022Z,98.09
2022-11-24T00:55:57.598Z,98.08
2022-11-24T00:58:24.940Z,97.93
2022-11-24T01:00:52.530Z,98.15
2022-11-24T01:03:20.649Z,98.52
2022-11-24T01:05:47.078Z,98.27
2022-11-24T01:08:14.039Z,98.48
2022-11-24T01:10:40.483Z,98.40
2022-11-24T01:13:06.893Z,98.24
2022-11-24T01:15:36.013Z,98.33
2022-11-24T01:18:03.051Z,98.25
2022-11-24T01:20:29.798Z,98.45
2022-11-24T01:22:56.587Z,98.70
2022-11-24T01:25:22.989Z,99.21
2022-11-24T01:27:49.382Z,98.44
2022-11-24T01:30:16.245Z,98.47
2022-11-24T01:32:42.631Z,98.57
2022-11-24T01:35:10.035Z,98.85
2022-11-24T01:37:36.389Z,98.66
2022-11-24T01:40:02.844Z,98.61
2022-11-24T01:42:40.304Z,98.27
2022-11-24T01:45:41.346Z,98.33
2022-11-24T01:48:18.216Z,98.33
2022-11-24T01:50:49.492Z,98.12
2022-11-24T01:53:16.298Z,98.02
2022-11-24T01:55:42.993Z,97.99
2022-11-24T01:58:17.812Z,97.84
2022-11-24T02:00:45.197Z,97.76
2022-11-24T02:03:15.886Z,98.04
2022-11-24T02:05:54.254Z,98.04
2022-11-24T02:08:35.693Z,98.05
2022-11-24T02:11:05.394Z,98.19
2022-11-24T02:13:36.008Z,98.08
2022-11-24T02:16:03.120Z,97.41
2022-11-24T02:18:29.974Z,97.70
2022-11-24T02:20:56.797Z,97.12
2022-11-24T02:23:32.009Z,97.08
2022-11-24T02:26:10.366Z,97.43
2022-11-24T02:28:37.634Z,97.68
2022-11-24T02:31:05.576Z,97.28
2022-11-24T02:33:34.159Z,97.23
2022-11-24T02:36:01.152Z,96.81
2022-11-24T02:38:32.696Z,96.58
2022-11-24T02:41:03.174Z,96.57
2022-11-24T02:43:36.066Z,96.03
2022-11-24T02:46:02.524Z,96.44
2022-11-24T02:48:29.432Z,96.12
2022-11-24T02:50:56.277Z,95.93
2022-11-24T02:53:22.735Z,95.20
2022-11-24T02:55:49.118Z,95.63
2022-11-24T02:58:16.420Z,95.69
2022-11-24T03:00:42.797Z,94.58
2022-11-24T03:03:09.259Z,95.38
2022-11-24T03:05:36.160Z,95.39
2022-11-24T03:08:03.233Z,95.18
2022-11-24T03:10:29.633Z,95.11
2022-11-24T03:12:56.585Z,95.52
2022-11-24T03:15:23.646Z,95.87
2022-11-24T03:17:53.862Z,95.95
2022-11-24T03:20:20.646Z,96.27
2022-11-24T03:22:47.026Z,96.85
2022-11-24T03:25:13.413Z,96.87
2022-11-24T03:27:40.153Z,97.09
2022-11-24T03:30:07.323Z,97.15
2022-11-24T03:32:33.853Z,97.37
2022-11-24T03:35:00.949Z,97.36
2022-11-24T03:37:28.080Z,97.87
2022-11-24T03:39:54.435Z,98.07
2022-11-24T03:42:21.146Z,98.31
2022-11-24T03:44:47.542Z,98.26
2022-11-24T03:47:13.990Z,98.76
2022-11-24T03:49:41.424Z,98.67
2022-11-24T03:52:08.726Z,98.75
2022-11-24T03:54:35.930Z,99.10
2022-11-24T03:57:02.482Z,99.43
2022-11-24T03:59:28.866Z,99.10
2022-11-24T04:01:55.643Z,99.56
2022-11-24T04:04:22.058Z,99.24
2022-11-24T04:06:48.432Z,99.56
2022-11-24T04:09:15.537Z,99.11
2022-11-24T04:12:00.355Z,99.11
2022-11-24T04:14:27.039Z,98.92
2022-11-24T04:16:53.989Z,99.00
2022-11-24T04:19:20.326Z,98.38
2022-11-24T04:21:47.254Z,98.47
2022-11-24T04:24:14.608Z,98.45
2022-11-24T04:26:40.938Z,98.05
2022-11-24T04:29:07.729Z,97.89
2022-11-24T04:31:34.169Z,97.38
2022-11-24T04:34:00.532Z,97.66
2022-11-24T04:36:27.342Z,97.75
2022-11-24T04:39:19.375Z,96.94
2022-11-24T04:41:40.763Z,96.97
2022-11-24T04:44:07.114Z,97.33
2022-11-24T04:46:33.514Z,96.99
2022-11-24T04:49:00.241Z,97.15
2022-11-24T04:51:26.845Z,97.24
2022-11-24T04:53:53.150Z,97.70
2022-11-24T04:56:20.034Z,97.36
2022-11-24T04:58:48.940Z,97.75
2022-11-24T05:01:15.553Z,97.29
2022-11-24T05:03:42.257Z,97.31
2022-11-24T05:06:08.905Z,97.53
2022-11-24T05:08:35.502Z,97.07
2022-11-24T05:11:06.845Z,97.21
2022-11-24T05:13:33.356Z,97.42
2022-11-24T05:16:01.173Z,97.21
2022-11-24T05:18:28.049Z,96.98
2022-11-24T05:20:54.873Z,97.25
2022-11-24T05:23:21.315Z,97.64
2022-11-24T05:25:48.179Z,97.37
2022-11-24T05:28:14.569Z,97.74
2022-11-24T05:30:41.795Z,97.70
2022-11-24T05:33:12.041Z,97.77
2022-11-24T05:35:38.556Z,97.89
2022-11-24T05:38:05.522Z,97.67
2022-11-24T05:40:31.966Z,97.69
2022-11-24T05:42:58.293Z,98.26
2022-11-24T05:45:25.028Z,98.32
2022-11-24T05:47:51.566Z,98.25
2022-11-24T05:50:21.760Z,98.55
2022-11-24T05:52:49.599Z,99.04
2022-11-24T05:55:16.459Z,98.77
2022-11-24T05:57:43.004Z,98.96
2022-11-24T06:00:10.610Z,99.24
2022-11-24T06:02:37.441Z,99.00
2022-11-24T06:05:04.499Z,99.49
2022-11-24T06:07:30.848Z,99.44
2022-11-24T06:09:57.191Z,99.74
2022-11-24T06:12:23.528Z,99.24
2022-11-24T06:14:49.831Z,99.42
2022-11-24T06:17:16.134Z,98.85
2022-11-24T06:19:46.141Z,98.95
2022-11-24T06:22:12.546Z,98.66
2022-11-24T06:24:38.845Z,99.14
2022-11-24T06:27:05.758Z,99.09
2022-11-24T06:29:32.063Z,99.68
2022-11-24T06:31:58.435Z,100.00
2022-11-24T06:34:25.266Z,100.00
2022-11-24T06:36:51.569Z,100.00
2022-11-24T06:39:17.938Z,100.00
2022-11-24T06:41:44.810Z,100.00
2022-11-24T06:44:11.145Z,100.00
2022-11-24T06:46:37.487Z,100.00
2022-11-24T06:49:04.203Z,99.54
2022-11-24T06:51:30.526Z,98.74
2022-11-24T06:53:56.862Z,99.40
2022-11-24T06:56:23.674Z,99.40
2022-11-24T06:58:52.149Z,98.83
2022-11-24T07:01:24.937Z,98.49
2022-11-24T07:03:53.149Z,97.94
2022-11-24T07:06:20.721Z,98.75
2022-11-24T07:08:47.825Z,98.90
2022-11-24T07:11:17.198Z,99.14
2022-11-24T07:13:44.473Z,99.32
2022-11-24T07:16:20.183Z,98.71
2022-11-24T07:18:48.077Z,97.71
2022-11-24T07:21:14.805Z,97.05
2022-11-24T07:23:41.733Z,96.50
2022-11-24T07:26:08.963Z,95.60
2022-11-24T07:28:39.200Z,94.45
2022-11-24T07:31:19.174Z,94.57
2022-11-24T07:33:49.824Z,94.26
2022-11-24T07:36:16.662Z,94.44
2022-11-24T07:38:43.317Z,94.62
2022-11-24T07:41:12.448Z,94.14
2022-11-24T07:43:39.907Z,94.46
2022-11-24T07:46:08.747Z,94.66
2022-11-24T07:48:35.433Z,95.11
2022-11-24T07:51:04.435Z,94.65
2022-11-24T07:53:31.741Z,94.23
2022-11-24T07:56:00.257Z,94.21
2022-11-24T07:58:32.865Z,93.91
2022-11-24T08:00:59.748Z,93.54
2022-11-24T08:03:26.099Z,92.57
2022-11-24T08:08:46.944Z,92.66
2022-11-24T08:11:16.492Z,93.21
2022-11-24T08:13:43.569Z,92.06
2022-11-24T08:16:13.163Z,92.34
2022-11-24T08:18:39.610Z,92.73
2022-11-24T08:21:06.835Z,92.63
2022-11-24T08:23:34.511Z,93.20
2022-11-24T08:26:05.833Z,93.67
2022-11-24T08:28:32.790Z,93.33
2022-11-24T08:31:12.114Z,93.70
2022-11-24T08:33:39.170Z,93.88
2022-11-24T08:36:11.829Z,95.22
2022-11-24T08:38:39.028Z,94.95
2022-11-24T08:41:08.623Z,95.67
2022-11-24T08:43:35.272Z,95.84
2022-11-24T08:46:07.661Z,95.58
2022-11-24T08:48:34.847Z,95.98
2022-11-24T08:51:08.777Z,95.64
2022-11-24T08:53:35.096Z,95.86
2022-11-24T08:56:02.526Z,96.20
2022-11-24T08:58:30.191Z,95.61
2022-11-24T09:01:03.606Z,95.67
2022-11-24T09:03:29.952Z,94.91
2022-11-24T09:05:56.283Z,95.11
2022-11-24T09:08:22.925Z,95.53
2022-11-24T09:10:49.230Z,95.61
2022-11-24T09:13:15.551Z,95.96
2022-11-24T09:15:42.227Z,95.22
2022-11-24T09:18:08.594Z,95.88
2022-11-24T09:20:34.977Z,95.29
2022-11-24T09:23:01.709Z,95.20
2022-11-24T09:25:28.025Z,95.02
2022-11-24T09:27:55.239Z,95.55
2022-11-24T09:30:23.069Z,95.16
2022-11-24T09:32:49.407Z,95.43
2022-11-24T09:35:16.167Z,96.07
2022-11-24T09:37:44.634Z,95.42
2022-11-24T09:40:14.156Z,95.28
2022-11-24T09:43:00.822Z,95.43
2022-11-24T09:46:04.411Z,94.38
2022-11-24T09:48:37.729Z,95.61
2022-11-24T09:51:05.973Z,95.43
2022-11-24T09:53:37.381Z,94.62
2022-11-24T09:56:21.235Z,94.34
2022-11-24T09:59:18.534Z,93.96
2022-11-24T10:01:47.318Z,95.55
2022-11-24T10:04:24.828Z,93.28
2022-11-24T10:07:04.956Z,92.07
2022-11-24T10:09:58.786Z,92.81
2022-11-24T10:12:47.300Z,93.04
2022-11-24T10:15:21.895Z,92.78
2022-11-24T10:18:16.688Z,93.59
2022-11-24T10:20:56.953Z,93.14
2022-11-24T10:23:41.799Z,93.80
2022-11-24T10:26:18.346Z,94.92
2022-11-24T10:28:52.203Z,95.64
2022-11-24T10:31:42.375Z,95.06
2022-11-24T10:34:18.416Z,95.68
2022-11-24T10:37:04.189Z,95.93
2022-11-24T10:39:50.460Z,95.82
2022-11-24T10:42:29.149Z,94.89
2022-11-24T10:45:09.130Z,94.90
2022-11-24T10:47:35.996Z,93.44
2022-11-24T10:50:32.858Z,94.33
2022-11-24T10:53:34.274Z,94.06
2022-11-24T10:56:04.390Z,93.41
2022-11-24T10:58:38.266Z,93.91
2022-11-24T11:01:13.924Z,93.12
2022-11-24T11:03:49.837Z,94.12
2022-11-24T11:06:25.178Z,93.65
2022-11-24T11:09:07.293Z,93.88
2022-11-24T11:11:39.695Z,94.29
2022-11-24T11:14:07.988Z,93.39
2022-11-24T11:16:42.783Z,93.54
2022-11-24T11:22:25.694Z,92.17
2022-11-24T11:25:12.548Z,92.13
2022-11-24T11:27:41.261Z,93.24
2022-11-24T11:36:14.479Z,91.63
2022-11-24T11:38:43.529Z,92.08
2022-11-24T11:41:19.214Z,90.97
2022-11-24T11:43:50.658Z,91.56
2022-11-24T11:46:17.384Z,93.92
2022-11-24T11:48:46.595Z,92.50
2022-11-24T11:51:34.594Z,92.55
2022-11-24T11:54:31.021Z,93.67
2022-11-24T11:57:10.482Z,92.39
2022-11-24T11:59:47.211Z,92.30
2022-11-24T12:02:48.564Z,91.25
2022-11-24T12:05:34.862Z,92.88
2022-11-24T12:08:20.733Z,91.89
2022-11-24T12:10:50.518Z,90.33
2022-11-24T12:13:40.411Z,88.57
2022-11-24T12:16:16.621Z,90.30
2022-11-24T12:18:58.274Z,90.05
2022-11-24T12:22:04.042Z,91.64
2022-11-24T12:25:15.604Z,91.06
2022-11-24T12:27:49.867Z,90.98
2022-11-24T12:30:17.883Z,91.63
2022-11-24T12:33:09.741Z,92.57
2022-11-24T12:36:13.577Z,91.28
2022-11-24T12:39:02.309Z,92.97
2022-11-24T12:42:10.481Z,90.98
2022-11-24T12:44:49.332Z,90.42
2022-11-24T12:47:27.117Z,90.10
2022-11-24T12:50:10.137Z,89.96
2022-11-24T12:52:46.548Z,88.42
2022-11-24T12:55:18.699Z,89.72
2022-11-24T12:57:58.610Z,86.72
2022-11-24T13:00:53.111Z,85.48
2022-11-24T13:04:00.714Z,87.41
2022-11-24T13:06:52.218Z,85.90
2022-11-24T13:09:18.838Z,83.85
2022-11-24T13:11:51.460Z,84.23
2022-11-24T13:14:37.524Z,83.19
2022-11-24T13:17:39.336Z,83.43
2022-11-24T13:20:19.050Z,82.82
2022-11-24T13:23:05.184Z,81.71
2022-11-24T13:25:35.872Z,83.71
2022-11-24T13:28:06.528Z,83.16
2022-11-24T13:30:35.912Z,82.69
2022-11-24T13:33:31.527Z,83.37
2022-11-24T13:36:07.750Z,83.34
2022-11-24T13:38:51.147Z,83.40
2022-11-24T13:41:32.656Z,82.76
2022-11-24T13:44:15.043Z,83.42
2022-11-24T13:47:06.676Z,82.31
2022-11-24T13:49:41.276Z,83.15
2022-11-24T13:52:35.781Z,84.45
2022-11-24T13:55:10.035Z,83.29
2022-11-24T13:57:43.736Z,84.63
2022-11-24T14:00:21.062Z,85.35
2022-11-24T14:02:48.393Z,86.09
2022-11-24T14:05:16.963Z,84.37
2022-11-24T14:07:47.129Z,85.03
2022-11-24T14:10:20.197Z,84.81
2022-11-24T14:12:46.827Z,85.34
2022-11-24T14:15:29.954Z,85.50
2022-11-24T14:17:56.275Z,85.50
2022-11-24T14:20:25.493Z,85.73
2022-11-24T14:22:52.596Z,87.56
2022-11-24T14:25:30.686Z,88.29
2022-11-24T14:27:59.094Z,87.42
2022-11-24T14:30:26.317Z,82.70
2022-11-24T14:32:57.829Z,83.37
2022-11-24T14:35:32.953Z,82.19
2022-11-24T14:38:02.673Z,83.16
2022-11-24T14:40:39.929Z,84.29
2022-11-24T14:43:17.653Z,85.45
2022-11-24T14:46:04.995Z,85.79
2022-11-24T14:48:48.955Z,86.61
2022-11-24T14:51:20.906Z,86.69
2022-11-24T14:53:54.959Z,87.58
2022-11-24T14:56:31.733Z,89.42
2022-11-24T14:58:59.390Z,89.43
2022-11-24T15:01:29.246Z,90.43
2022-11-24T15:07:26.986Z,89.56
2022-11-24T15:09:57.930Z,89.35
2022-11-24T15:12:24.521Z,89.15
2022-11-24T15:14:54.377Z,88.39
2022-11-24T15:17:24.508Z,89.00
2022-11-24T15:19:58.627Z,88.10
2022-11-24T15:22:40.597Z,88.16
2022-11-24T15:25:26.529Z,88.34
2022-11-24T15:27:53.274Z,88.35
2022-11-24T15:30:19.885Z,89.49
2022-11-24T15:32:51.419Z,90.55
2022-11-24T15:35:17.941Z,90.61
2022-11-24T15:37:44.592Z,90.45
2022-11-24T15:40:12.173Z,91.80
2022-11-24T15:42:38.515Z,90.79
2022-11-24T15:45:05.543Z,91.44
2022-11-24T15:47:32.242Z,91.74
2022-11-24T15:49:58.561Z,91.82
2022-11-24T15:52:24.903Z,91.30
2022-11-24T15:54:55.693Z,92.13
2022-11-24T15:57:22.098Z,93.07
2022-11-24T15:59:48.436Z,92.51
2022-11-24T16:02:14.857Z,92.53
2022-11-24T16:04:41.629Z,92.47
2022-11-24T16:07:14.491Z,92.59
2022-11-24T16:09:41.622Z,93.98
2022-11-24T16:12:08.379Z,92.77
2022-11-24T16:14:36.143Z,93.22
2022-11-24T16:17:03.457Z,92.62
2022-11-24T16:19:29.762Z,93.24
2022-11-24T16:21:56.066Z,93.48
2022-11-24T16:24:22.795Z,93.53
2022-11-24T16:26:49.218Z,93.32
2022-11-24T16:29:15.586Z,93.50
2022-11-24T16:31:43.401Z,93.69
2022-11-24T16:34:10.050Z,93.32
2022-11-24T16:36:36.366Z,93.52
2022-11-24T16:39:03.076Z,93.95
2022-11-24T16:41:29.578Z,93.79
2022-11-24T16:43:56.525Z,94.01
2022-11-24T16:46:25.031Z,93.20
2022-11-24T16:48:53.253Z,93.91
2022-11-24T16:51:22.349Z,93.96
2022-11-24T16:53:56.522Z,94.37
2022-11-24T16:56:22.858Z,94.40
2022-11-24T16:58:49.176Z,94.03
2022-11-24T17:01:15.939Z,94.29
2022-11-24T17:03:42.389Z,94.29
2022-11-24T17:06:11.742Z,94.81
2022-11-24T17:08:40.306Z,92.23
2022-11-24T17:11:10.812Z,91.63
2022-11-24T17:13:38.242Z,91.81
2022-11-24T17:16:06.496Z,91.20
2022-11-24T17:18:34.105Z,91.49
2022-11-24T17:21:07.641Z,92.32
2022-11-24T17:23:35.670Z,92.95
2022-11-24T17:26:03.943Z,92.19
2022-11-24T17:28:30.480Z,93.32
2022-11-24T17:30:57.183Z,93.26
2022-11-24T17:33:23.915Z,94.05
2022-11-24T17:35:50.258Z,94.14
2022-11-24T17:38:16.584Z,94.45
2022-11-24T17:40:48.313Z,93.64
2022-11-24T17:43:14.646Z,94.61
2022-11-24T17:45:41.602Z,94.53
2022-11-24T17:48:08.328Z,93.78
2022-11-24T17:50:34.838Z,94.25
2022-11-24T17:53:01.578Z,94.69
2022-11-24T17:55:27.887Z,94.54
2022-11-24T17:57:55.780Z,94.50
2022-11-24T18:00:22.340Z,94.46
2022-11-24T18:02:48.732Z,96.32
2022-11-24T18:05:15.716Z,94.97
2022-11-24T18:07:42.101Z,95.03
2022-11-24T18:10:08.747Z,94.68
2022-11-24T18:12:35.426Z,94.62
2022-11-24T18:15:01.850Z,94.35
2022-11-24T18:17:28.955Z,94.57
2022-11-24T18:19:55.742Z,95.72
2022-11-24T18:22:42.830Z,94.77
2022-11-24T18:25:08.817Z,95.29
2022-11-24T18:27:35.149Z,93.79
2022-11-24T18:30:01.458Z,94.12
2022-11-24T18:32:28.460Z,93.98
2022-11-24T18:34:54.802Z,94.04
2022-11-24T18:37:21.159Z,93.97
2022-11-24T18:39:47.848Z,94.47
2022-11-24T18:42:14.170Z,94.06
2022-11-24T18:44:42.248Z,95.41
2022-11-24T18:47:09.182Z,95.05
2022-11-24T18:49:35.572Z,95.61
2022-11-24T18:52:01.908Z,95.33
2022-11-24T18:54:28.713Z,96.29
2022-11-24T18:56:57.756Z,95.08
2022-11-24T18:59:28.623Z,95.54
2022-11-24T19:01:56.376Z,95.84
2022-11-24T19:04:23.914Z,95.55
2022-11-24T19:06:50.690Z,95.88
2022-11-24T19:09:22.594Z,95.42
2022-11-24T19:11:49.049Z,95.74
2022-11-24T19:14:18.073Z,94.89
2022-11-24T19:16:47.461Z,95.38
2022-11-24T19:19:13.961Z,94.97
2022-11-24T19:21:41.492Z,95.12
2022-11-24T19:24:13.087Z,95.25
2022-11-24T19:26:40.214Z,94.82
2022-11-24T19:29:08.110Z,95.56
2022-11-24T19:31:35.172Z,95.18
2022-11-24T19:34:02.915Z,95.03
2022-11-24T19:36:29.775Z,95.56
2022-11-24T19:38:57.661Z,94.62
2022-11-24T19:41:26.600Z,95.06
2022-11-24T19:43:56.817Z,95.14
2022-11-24T19:46:26.946Z,95.64
2022-11-24T19:48:56.430Z,95.49
2022-11-24T19:51:25.733Z,95.97
2022-11-24T19:53:53.435Z,95.74
2022-11-24T19:56:21.437Z,95.31
2022-11-24T19:58:49.562Z,95.89
2022-11-24T20:01:22.551Z,95.68
2022-11-24T20:03:59.815Z,95.17
2022-11-24T20:06:32.078Z,95.31
2022-11-24T20:09:00.303Z,95.33
2022-11-24T20:11:27.834Z,96.30
2022-11-24T20:13:55.308Z,95.57
2022-11-24T20:16:26.524Z,95.66
2022-11-24T20:18:55.386Z,96.03
2022-11-24T20:21:24.517Z,95.79
2022-11-24T20:23:59.786Z,95.86
2022-11-24T20:26:29.605Z,96.24
2022-11-24T20:28:57.390Z,96.66
2022-11-24T20:31:27.654Z,96.98
2022-11-24T20:33:54.021Z,96.40
2022-11-24T20:36:23.569Z,95.66
2022-11-24T20:38:51.757Z,96.12
2022-11-24T20:41:19.863Z,96.53
2022-11-24T20:43:48.067Z,96.49
2022-11-24T20:46:19.775Z,95.72
2022-11-24T20:48:46.557Z,96.40
2022-11-24T20:51:16.264Z,96.25
2022-11-24T20:53:42.626Z,95.64
2022-11-24T20:56:19.213Z,95.63
2022-11-24T20:58:45.615Z,95.79
2022-11-24T21:01:18.641Z,95.80
2022-11-24T21:03:46.502Z,95.76
2022-11-24T21:06:14.121Z,96.07
2022-11-24T21:08:42.271Z,96.12
2022-11-24T21:11:12.048Z,95.49
2022-11-24T21:13:40.462Z,96.43
2022-11-24T21:16:15.140Z,95.58
2022-11-24T21:18:42.901Z,95.58
2022-11-24T21:21:09.562Z,95.49
2022-11-24T21:23:36.656Z,96.58
2022-11-24T21:26:07.384Z,96.66
2022-11-24T21:28:35.805Z,96.76
2022-11-24T21:31:07.917Z,96.43
2022-11-24T21:33:34.606Z,96.96
2022-11-24T21:36:02.933Z,96.96
2022-11-24T21:38:29.985Z,96.71
2022-11-24T21:41:05.921Z,95.87
2022-11-24T21:43:33.070Z,96.07
2022-11-24T21:46:07.542Z,96.14
2022-11-24T21:48:35.552Z,96.25
2022-11-24T21:51:04.898Z,96.59
2022-11-24T21:53:34.036Z,96.22
2022-11-24T21:56:03.450Z,96.01
2022-11-24T21:58:29.817Z,96.40
2022-11-24T22:01:02.525Z,96.07
2022-11-24T22:03:28.937Z,95.98
2022-11-24T22:05:56.994Z,96.17
2022-11-24T22:08:25.642Z,96.52
2022-11-24T22:10:53.017Z,96.61
2022-11-24T22:13:19.955Z,96.37
2022-11-24T22:15:46.299Z,96.25
2022-11-24T22:18:13.144Z,96.12
2022-11-24T22:20:39.502Z,96.06
2022-11-24T22:23:05.846Z,96.37
2022-11-24T22:25:33.714Z,95.93
2022-11-24T22:28:00.225Z,96.22
2022-11-24T22:30:26.989Z,95.80
2022-11-24T22:32:53.669Z,96.61
2022-11-24T22:35:20.034Z,96.47
2022-11-24T22:37:46.826Z,96.22
2022-11-24T22:40:13.247Z,96.16
2022-11-24T22:42:39.577Z,95.54
2022-11-24T22:45:06.994Z,95.54
2022-11-24T22:47:33.325Z,95.51
2022-11-24T22:49:59.629Z,95.69
2022-11-24T22:52:26.312Z,95.68
2022-11-24T22:54:52.626Z,95.87
2022-11-24T22:57:18.934Z,95.90
2022-11-24T22:59:45.601Z,95.82
2022-11-24T23:02:11.910Z,95.70
2022-11-24T23:04:38.329Z,95.50
2022-11-24T23:07:05.001Z,95.40
2022-11-24T23:09:31.310Z,95.11
2022-11-24T23:11:57.615Z,95.25
2022-11-24T23:14:24.287Z,95.61
2022-11-24T23:16:50.695Z,95.65
2022-11-24T23:19:17.761Z,95.92
2022-11-24T23:21:44.660Z,95.64
2022-11-24T23:24:11.142Z,95.31
2022-11-24T23:26:39.860Z,95.75
2022-11-24T23:29:07.858Z,95.71
2022-11-24T23:31:34.312Z,95.88
2022-11-24T23:34:03.697Z,95.70
2022-11-24T23:36:30.731Z,95.26
2022-11-24T23:39:06.965Z,95.34
2022-11-24T23:41:33.442Z,95.21
2022-11-24T23:44:00.541Z,95.35
2022-11-24T23:46:27.699Z,95.08
2022-11-24T23:48:54.997Z,95.00
2022-11-24T23:51:32.949Z,94.95
2022-11-24T23:54:00.536Z,94.82
2022-11-24T23:56:32.220Z,94.94
2022-11-24T23:59:00.097Z,95.26
